Hythe, United Kingdom
Current Conditions -  °F | °C
As of 7:20 AM on Friday 19 Dec 2014 (Local Time) from EGMC Reporting Station
Rain Showers Rain Showers  
Wind Chill: 54°   Ceiling: 900
Heat Index: 54°   Visibility: 4mi
Dew Point: 50°   Wind: 16mph
Humidity: 88%   Direction: 250°WSW
Pressure: 29.8"   Gusts: NA
Location:  51.07°N, 1.08°E
Report Text: EGMC 190720Z 25014KT 7000 SHRA BKN009 12/10 Q1009
Loading
Personal Weather Stations






























Interactive Weather Map New forecast layout! Learn more

10-Day Weather Forecast

Advertisements
Track Severe Weather on mobile